sensor_id;sensor_type;location;lat;lon;timestamp;P1;durP1;ratioP1;P2;durP2;ratioP2
40997;SDS011;26740;45.944;12.480;2023-04-25T00:00:02;4.15;;;3.35;;
40997;SDS011;26740;45.944;12.480;2023-04-25T00:02:28;5.03;;;3.65;;
40997;SDS011;26740;45.944;12.480;2023-04-25T00:04:54;4.10;;;2.92;;
40997;SDS011;26740;45.944;12.480;2023-04-25T00:07:24;3.78;;;3.08;;
40997;SDS011;26740;45.944;12.480;2023-04-25T00:09:50;6.18;;;2.72;;
40997;SDS011;26740;45.944;12.480;2023-04-25T00:12:15;3.20;;;2.85;;
40997;SDS011;26740;45.944;12.480;2023-04-25T00:14:42;8.57;;;3.22;;
40997;SDS011;26740;45.944;12.480;2023-04-25T00:17:07;4.60;;;3.40;;
40997;SDS011;26740;45.944;12.480;2023-04-25T00:19:32;3.28;;;2.97;;
40997;SDS011;26740;45.944;12.480;2023-04-25T00:21:59;3.40;;;3.10;;
40997;SDS011;26740;45.944;12.480;2023-04-25T00:24:25;3.78;;;3.40;;
40997;SDS011;26740;45.944;12.480;2023-04-25T00:26:50;3.42;;;2.88;;
40997;SDS011;26740;45.944;12.480;2023-04-25T00:29:16;2.95;;;2.75;;
40997;SDS011;26740;45.944;12.480;2023-04-25T00:31:41;5.00;;;3.47;;
40997;SDS011;26740;45.944;12.480;2023-04-25T00:34:06;5.80;;;2.88;;
40997;SDS011;26740;45.944;12.480;2023-04-25T00:36:33;3.17;;;2.88;;
40997;SDS011;26740;45.944;12.480;2023-04-25T00:38:58;4.90;;;3.30;;
40997;SDS011;26740;45.944;12.480;2023-04-25T00:41:24;3.58;;;3.28;;
40997;SDS011;26740;45.944;12.480;2023-04-25T00:43:50;4.65;;;3.40;;
40997;SDS011;26740;45.944;12.480;2023-04-25T00:46:16;3.42;;;2.92;;
40997;SDS011;26740;45.944;12.480;2023-04-25T00:48:41;5.00;;;3.65;;
40997;SDS011;26740;45.944;12.480;2023-04-25T00:51:06;3.63;;;3.33;;
40997;SDS011;26740;45.944;12.480;2023-04-25T00:53:32;4.03;;;3.38;;
40997;SDS011;26740;45.944;12.480;2023-04-25T00:55:57;3.30;;;3.00;;
40997;SDS011;26740;45.944;12.480;2023-04-25T00:58:23;3.72;;;3.22;;
40997;SDS011;26740;45.944;12.480;2023-04-25T01:00:49;3.25;;;2.95;;
40997;SDS011;26740;45.944;12.480;2023-04-25T01:03:15;3.45;;;3.15;;
40997;SDS011;26740;45.944;12.480;2023-04-25T01:05:45;3.45;;;3.10;;
40997;SDS011;26740;45.944;12.480;2023-04-25T01:08:12;2.83;;;2.53;;
40997;SDS011;26740;45.944;12.480;2023-04-25T01:10:37;3.92;;;3.35;;
40997;SDS011;26740;45.944;12.480;2023-04-25T01:13:03;5.18;;;3.67;;
40997;SDS011;26740;45.944;12.480;2023-04-25T01:15:28;3.80;;;2.92;;
40997;SDS011;26740;45.944;12.480;2023-04-25T01:17:54;3.15;;;2.92;;
40997;SDS011;26740;45.944;12.480;2023-04-25T01:20:23;4.13;;;3.22;;
40997;SDS011;26740;45.944;12.480;2023-04-25T01:22:52;3.47;;;3.17;;
40997;SDS011;26740;45.944;12.480;2023-04-25T01:25:18;3.50;;;3.20;;
40997;SDS011;26740;45.944;12.480;2023-04-25T01:27:43;4.65;;;3.58;;
40997;SDS011;26740;45.944;12.480;2023-04-25T01:30:09;6.72;;;3.78;;
40997;SDS011;26740;45.944;12.480;2023-04-25T01:32:34;4.95;;;4.07;;
40997;SDS011;26740;45.944;12.480;2023-04-25T01:35:08;4.13;;;3.55;;
40997;SDS011;26740;45.944;12.480;2023-04-25T01:37:41;3.92;;;3.63;;
40997;SDS011;26740;45.944;12.480;2023-04-25T01:40:07;4.13;;;3.50;;
40997;SDS011;26740;45.944;12.480;2023-04-25T01:42:34;4.47;;;3.20;;
40997;SDS011;26740;45.944;12.480;2023-04-25T01:45:00;3.63;;;3.28;;
40997;SDS011;26740;45.944;12.480;2023-04-25T01:47:26;3.78;;;3.47;;
40997;SDS011;26740;45.944;12.480;2023-04-25T01:49:51;3.25;;;2.90;;
40997;SDS011;26740;45.944;12.480;2023-04-25T01:52:17;4.05;;;3.03;;
40997;SDS011;26740;45.944;12.480;2023-04-25T01:54:42;4.88;;;2.97;;
40997;SDS011;26740;45.944;12.480;2023-04-25T01:57:11;3.45;;;3.15;;
40997;SDS011;26740;45.944;12.480;2023-04-25T01:59:37;6.53;;;3.05;;
40997;SDS011;26740;45.944;12.480;2023-04-25T02:02:03;3.45;;;3.15;;
40997;SDS011;26740;45.944;12.480;2023-04-25T02:04:32;4.15;;;2.90;;
40997;SDS011;26740;45.944;12.480;2023-04-25T02:06:57;3.60;;;2.53;;
40997;SDS011;26740;45.944;12.480;2023-04-25T02:09:22;4.03;;;3.70;;
40997;SDS011;26740;45.944;12.480;2023-04-25T02:11:48;4.07;;;3.42;;
40997;SDS011;26740;45.944;12.480;2023-04-25T02:14:13;5.82;;;3.40;;
40997;SDS011;26740;45.944;12.480;2023-04-25T02:16:39;3.72;;;3.42;;
40997;SDS011;26740;45.944;12.480;2023-04-25T02:19:04;4.20;;;3.80;;
40997;SDS011;26740;45.944;12.480;2023-04-25T02:21:30;5.30;;;4.10;;
40997;SDS011;26740;45.944;12.480;2023-04-25T02:23:55;4.70;;;4.30;;
40997;SDS011;26740;45.944;12.480;2023-04-25T02:26:21;3.58;;;3.28;;
40997;SDS011;26740;45.944;12.480;2023-04-25T02:28:46;4.32;;;2.92;;
40997;SDS011;26740;45.944;12.480;2023-04-25T02:31:11;2.72;;;2.47;;
40997;SDS011;26740;45.944;12.480;2023-04-25T02:33:37;2.60;;;2.40;;
40997;SDS011;26740;45.944;12.480;2023-04-25T02:36:02;3.58;;;2.35;;
40997;SDS011;26740;45.944;12.480;2023-04-25T02:38:28;5.00;;;2.80;;
40997;SDS011;26740;45.944;12.480;2023-04-25T02:40:53;3.72;;;2.60;;
40997;SDS011;26740;45.944;12.480;2023-04-25T02:43:18;5.03;;;2.42;;
40997;SDS011;26740;45.944;12.480;2023-04-25T02:45:45;3.40;;;2.22;;
40997;SDS011;26740;45.944;12.480;2023-04-25T02:48:10;4.80;;;2.20;;
40997;SDS011;26740;45.944;12.480;2023-04-25T02:50:36;3.05;;;2.50;;
40997;SDS011;26740;45.944;12.480;2023-04-25T02:53:01;2.22;;;2.03;;
40997;SDS011;26740;45.944;12.480;2023-04-25T02:55:26;2.60;;;2.33;;
40997;SDS011;26740;45.944;12.480;2023-04-25T02:57:52;2.55;;;2.17;;
40997;SDS011;26740;45.944;12.480;2023-04-25T03:00:17;3.45;;;2.38;;
40997;SDS011;26740;45.944;12.480;2023-04-25T03:02:42;5.57;;;3.67;;
40997;SDS011;26740;45.944;12.480;2023-04-25T03:05:08;3.13;;;2.60;;
40997;SDS011;26740;45.944;12.480;2023-04-25T03:07:33;3.00;;;2.70;;
40997;SDS011;26740;45.944;12.480;2023-04-25T03:09:59;3.78;;;2.40;;
40997;SDS011;26740;45.944;12.480;2023-04-25T03:12:24;4.13;;;2.70;;
40997;SDS011;26740;45.944;12.480;2023-04-25T03:14:50;2.63;;;2.30;;
40997;SDS011;26740;45.944;12.480;2023-04-25T03:17:15;3.45;;;2.40;;
40997;SDS011;26740;45.944;12.480;2023-04-25T03:19:41;4.50;;;3.20;;
40997;SDS011;26740;45.944;12.480;2023-04-25T03:22:06;2.92;;;2.63;;
40997;SDS011;26740;45.944;12.480;2023-04-25T03:24:31;4.35;;;2.60;;
40997;SDS011;26740;45.944;12.480;2023-04-25T03:26:57;2.53;;;2.33;;
40997;SDS011;26740;45.944;12.480;2023-04-25T03:29:22;3.67;;;2.60;;
40997;SDS011;26740;45.944;12.480;2023-04-25T03:31:50;3.17;;;2.88;;
40997;SDS011;26740;45.944;12.480;2023-04-25T03:34:16;6.90;;;2.80;;
40997;SDS011;26740;45.944;12.480;2023-04-25T03:36:41;3.03;;;2.22;;
40997;SDS011;26740;45.944;12.480;2023-04-25T03:39:06;3.47;;;1.80;;
40997;SDS011;26740;45.944;12.480;2023-04-25T03:41:32;2.38;;;2.13;;
40997;SDS011;26740;45.944;12.480;2023-04-25T03:43:57;2.83;;;1.77;;
40997;SDS011;26740;45.944;12.480;2023-04-25T03:46:22;4.03;;;1.88;;
40997;SDS011;26740;45.944;12.480;2023-04-25T03:48:48;2.50;;;2.30;;
40997;SDS011;26740;45.944;12.480;2023-04-25T03:51:13;2.28;;;2.03;;
40997;SDS011;26740;45.944;12.480;2023-04-25T03:53:39;3.13;;;2.33;;
40997;SDS011;26740;45.944;12.480;2023-04-25T03:56:04;2.83;;;1.83;;
40997;SDS011;26740;45.944;12.480;2023-04-25T03:58:29;2.97;;;2.20;;
40997;SDS011;26740;45.944;12.480;2023-04-25T04:00:55;2.20;;;1.98;;
40997;SDS011;26740;45.944;12.480;2023-04-25T04:03:20;5.13;;;1.75;;
40997;SDS011;26740;45.944;12.480;2023-04-25T04:05:46;2.00;;;1.80;;
40997;SDS011;26740;45.944;12.480;2023-04-25T04:08:12;2.05;;;1.88;;
40997;SDS011;26740;45.944;12.480;2023-04-25T04:10:37;2.67;;;1.75;;
40997;SDS011;26740;45.944;12.480;2023-04-25T04:13:03;1.90;;;1.40;;
40997;SDS011;26740;45.944;12.480;2023-04-25T04:15:28;5.32;;;1.92;;
40997;SDS011;26740;45.944;12.480;2023-04-25T04:17:54;3.22;;;2.28;;
40997;SDS011;26740;45.944;12.480;2023-04-25T04:20:19;1.77;;;1.52;;
40997;SDS011;26740;45.944;12.480;2023-04-25T04:22:45;1.75;;;1.50;;
40997;SDS011;26740;45.944;12.480;2023-04-25T04:25:10;2.05;;;1.85;;
40997;SDS011;26740;45.944;12.480;2023-04-25T04:27:37;1.50;;;1.30;;
40997;SDS011;26740;45.944;12.480;2023-04-25T04:30:03;1.98;;;1.42;;
40997;SDS011;26740;45.944;12.480;2023-04-25T04:32:28;1.38;;;1.27;;
40997;SDS011;26740;45.944;12.480;2023-04-25T04:34:55;4.22;;;1.42;;
40997;SDS011;26740;45.944;12.480;2023-04-25T04:37:21;1.63;;;1.48;;
40997;SDS011;26740;45.944;12.480;2023-04-25T04:39:46;2.47;;;1.52;;
40997;SDS011;26740;45.944;12.480;2023-04-25T04:42:12;5.13;;;1.58;;
40997;SDS011;26740;45.944;12.480;2023-04-25T04:44:37;2.22;;;1.38;;
40997;SDS011;26740;45.944;12.480;2023-04-25T04:47:04;1.65;;;1.55;;
40997;SDS011;26740;45.944;12.480;2023-04-25T04:49:31;2.03;;;1.40;;
40997;SDS011;26740;45.944;12.480;2023-04-25T04:51:57;1.70;;;1.35;;
40997;SDS011;26740;45.944;12.480;2023-04-25T04:54:22;2.65;;;1.65;;
40997;SDS011;26740;45.944;12.480;2023-04-25T04:56:47;5.03;;;1.70;;
40997;SDS011;26740;45.944;12.480;2023-04-25T04:59:13;2.10;;;1.70;;
40997;SDS011;26740;45.944;12.480;2023-04-25T05:01:38;3.67;;;1.60;;
40997;SDS011;26740;45.944;12.480;2023-04-25T05:04:03;2.97;;;1.92;;
40997;SDS011;26740;45.944;12.480;2023-04-25T05:06:29;1.70;;;1.55;;
40997;SDS011;26740;45.944;12.480;2023-04-25T05:08:58;1.70;;;1.60;;
40997;SDS011;26740;45.944;12.480;2023-04-25T05:11:23;4.68;;;2.20;;
40997;SDS011;26740;45.944;12.480;2023-04-25T05:13:49;3.60;;;2.15;;
40997;SDS011;26740;45.944;12.480;2023-04-25T05:16:15;2.33;;;2.13;;
40997;SDS011;26740;45.944;12.480;2023-04-25T05:18:40;4.07;;;2.33;;
40997;SDS011;26740;45.944;12.480;2023-04-25T05:21:06;2.08;;;1.88;;
40997;SDS011;26740;45.944;12.480;2023-04-25T05:23:32;4.35;;;1.90;;
40997;SDS011;26740;45.944;12.480;2023-04-25T05:25:57;2.63;;;1.80;;
40997;SDS011;26740;45.944;12.480;2023-04-25T05:28:22;3.38;;;2.08;;
40997;SDS011;26740;45.944;12.480;2023-04-25T05:30:48;2.72;;;1.73;;
40997;SDS011;26740;45.944;12.480;2023-04-25T05:33:13;4.55;;;1.38;;
40997;SDS011;26740;45.944;12.480;2023-04-25T05:35:39;4.15;;;1.50;;
40997;SDS011;26740;45.944;12.480;2023-04-25T05:38:05;4.45;;;1.60;;
40997;SDS011;26740;45.944;12.480;2023-04-25T05:40:30;1.85;;;1.63;;
40997;SDS011;26740;45.944;12.480;2023-04-25T05:42:55;4.25;;;1.63;;
40997;SDS011;26740;45.944;12.480;2023-04-25T05:45:21;2.90;;;1.90;;
40997;SDS011;26740;45.944;12.480;2023-04-25T05:47:46;6.15;;;2.42;;
40997;SDS011;26740;45.944;12.480;2023-04-25T05:50:11;5.75;;;3.70;;
40997;SDS011;26740;45.944;12.480;2023-04-25T05:52:37;6.90;;;3.17;;
40997;SDS011;26740;45.944;12.480;2023-04-25T05:55:03;5.80;;;3.42;;
40997;SDS011;26740;45.944;12.480;2023-04-25T05:57:28;4.05;;;3.28;;
40997;SDS011;26740;45.944;12.480;2023-04-25T05:59:54;3.05;;;2.75;;
40997;SDS011;26740;45.944;12.480;2023-04-25T06:02:20;5.88;;;3.28;;
40997;SDS011;26740;45.944;12.480;2023-04-25T06:04:51;6.72;;;3.15;;
40997;SDS011;26740;45.944;12.480;2023-04-25T06:07:17;5.25;;;2.85;;
40997;SDS011;26740;45.944;12.480;2023-04-25T06:09:43;6.00;;;3.10;;
40997;SDS011;26740;45.944;12.480;2023-04-25T06:12:08;3.55;;;3.08;;
40997;SDS011;26740;45.944;12.480;2023-04-25T06:14:34;3.17;;;2.78;;
40997;SDS011;26740;45.944;12.480;2023-04-25T06:16:59;4.28;;;3.88;;
40997;SDS011;26740;45.944;12.480;2023-04-25T06:19:31;7.10;;;6.40;;
40997;SDS011;26740;45.944;12.480;2023-04-25T06:21:56;11.27;;;10.07;;
40997;SDS011;26740;45.944;12.480;2023-04-25T06:24:22;8.95;;;5.95;;
40997;SDS011;26740;45.944;12.480;2023-04-25T06:26:47;4.63;;;3.38;;
40997;SDS011;26740;45.944;12.480;2023-04-25T06:29:12;3.28;;;2.97;;
40997;SDS011;26740;45.944;12.480;2023-04-25T06:31:38;4.10;;;3.75;;
40997;SDS011;26740;45.944;12.480;2023-04-25T06:34:03;5.43;;;4.93;;
40997;SDS011;26740;45.944;12.480;2023-04-25T06:36:28;4.13;;;3.53;;
40997;SDS011;26740;45.944;12.480;2023-04-25T06:38:55;6.97;;;4.00;;
40997;SDS011;26740;45.944;12.480;2023-04-25T06:41:20;5.45;;;3.67;;
40997;SDS011;26740;45.944;12.480;2023-04-25T06:43:46;4.43;;;4.03;;
40997;SDS011;26740;45.944;12.480;2023-04-25T06:46:11;3.72;;;3.40;;
40997;SDS011;26740;45.944;12.480;2023-04-25T06:48:37;3.83;;;3.45;;
40997;SDS011;26740;45.944;12.480;2023-04-25T06:51:02;11.52;;;5.07;;
40997;SDS011;26740;45.944;12.480;2023-04-25T06:53:28;6.82;;;4.88;;
40997;SDS011;26740;45.944;12.480;2023-04-25T06:55:53;7.13;;;4.78;;
40997;SDS011;26740;45.944;12.480;2023-04-25T06:58:19;5.18;;;4.55;;
40997;SDS011;26740;45.944;12.480;2023-04-25T07:00:44;5.13;;;4.63;;
40997;SDS011;26740;45.944;12.480;2023-04-25T07:03:09;5.05;;;4.53;;
40997;SDS011;26740;45.944;12.480;2023-04-25T07:05:35;8.80;;;4.50;;
40997;SDS011;26740;45.944;12.480;2023-04-25T07:08:00;7.72;;;5.00;;
40997;SDS011;26740;45.944;12.480;2023-04-25T07:10:26;8.10;;;5.50;;
40997;SDS011;26740;45.944;12.480;2023-04-25T07:12:51;7.65;;;4.55;;
40997;SDS011;26740;45.944;12.480;2023-04-25T07:15:16;6.80;;;5.47;;
40997;SDS011;26740;45.944;12.480;2023-04-25T07:17:42;7.90;;;5.55;;
40997;SDS011;26740;45.944;12.480;2023-04-25T07:20:07;7.35;;;5.93;;
40997;SDS011;26740;45.944;12.480;2023-04-25T07:22:34;14.35;;;6.55;;
40997;SDS011;26740;45.944;12.480;2023-04-25T07:24:59;13.43;;;6.60;;
40997;SDS011;26740;45.944;12.480;2023-04-25T07:27:25;7.28;;;6.57;;
40997;SDS011;26740;45.944;12.480;2023-04-25T07:29:50;10.50;;;7.70;;
40997;SDS011;26740;45.944;12.480;2023-04-25T07:32:15;7.97;;;6.82;;
40997;SDS011;26740;45.944;12.480;2023-04-25T07:34:41;11.48;;;7.95;;
40997;SDS011;26740;45.944;12.480;2023-04-25T07:37:06;9.85;;;6.43;;
40997;SDS011;26740;45.944;12.480;2023-04-25T07:39:32;5.63;;;4.95;;
40997;SDS011;26740;45.944;12.480;2023-04-25T07:41:57;7.97;;;5.88;;
40997;SDS011;26740;45.944;12.480;2023-04-25T07:44:23;7.28;;;5.40;;
40997;SDS011;26740;45.944;12.480;2023-04-25T07:46:49;5.90;;;5.30;;
40997;SDS011;26740;45.944;12.480;2023-04-25T07:49:14;7.45;;;5.00;;
40997;SDS011;26740;45.944;12.480;2023-04-25T07:51:40;7.20;;;5.60;;
40997;SDS011;26740;45.944;12.480;2023-04-25T07:54:06;4.75;;;4.00;;
40997;SDS011;26740;45.944;12.480;2023-04-25T07:56:32;4.22;;;3.28;;
40997;SDS011;26740;45.944;12.480;2023-04-25T07:58:57;4.10;;;3.28;;
40997;SDS011;26740;45.944;12.480;2023-04-25T08:01:22;6.35;;;3.22;;
40997;SDS011;26740;45.944;12.480;2023-04-25T08:03:48;5.05;;;3.15;;
40997;SDS011;26740;45.944;12.480;2023-04-25T08:06:13;5.32;;;3.20;;
40997;SDS011;26740;45.944;12.480;2023-04-25T08:08:38;5.20;;;2.90;;
40997;SDS011;26740;45.944;12.480;2023-04-25T08:11:04;3.58;;;3.05;;
40997;SDS011;26740;45.944;12.480;2023-04-25T08:13:29;6.57;;;4.07;;
40997;SDS011;26740;45.944;12.480;2023-04-25T08:15:54;3.65;;;2.47;;
40997;SDS011;26740;45.944;12.480;2023-04-25T08:18:20;3.88;;;2.35;;
40997;SDS011;26740;45.944;12.480;2023-04-25T08:20:45;5.38;;;2.60;;
40997;SDS011;26740;45.944;12.480;2023-04-25T08:23:10;2.72;;;1.85;;
40997;SDS011;26740;45.944;12.480;2023-04-25T08:25:36;3.05;;;2.22;;
40997;SDS011;26740;45.944;12.480;2023-04-25T08:28:01;2.95;;;2.22;;
40997;SDS011;26740;45.944;12.480;2023-04-25T08:30:29;3.35;;;2.28;;
40997;SDS011;26740;45.944;12.480;2023-04-25T08:32:54;2.35;;;2.13;;
40997;SDS011;26740;45.944;12.480;2023-04-25T08:35:20;3.55;;;2.25;;
40997;SDS011;26740;45.944;12.480;2023-04-25T08:37:45;2.25;;;2.03;;
40997;SDS011;26740;45.944;12.480;2023-04-25T08:40:13;5.32;;;3.47;;
40997;SDS011;26740;45.944;12.480;2023-04-25T08:42:39;3.83;;;2.22;;
40997;SDS011;26740;45.944;12.480;2023-04-25T08:45:06;3.00;;;1.98;;
40997;SDS011;26740;45.944;12.480;2023-04-25T08:47:32;3.78;;;3.35;;
40997;SDS011;26740;45.944;12.480;2023-04-25T08:49:58;3.97;;;3.22;;
40997;SDS011;26740;45.944;12.480;2023-04-25T08:52:24;5.88;;;3.10;;
40997;SDS011;26740;45.944;12.480;2023-04-25T08:54:52;2.45;;;2.25;;
40997;SDS011;26740;45.944;12.480;2023-04-25T08:57:19;2.78;;;1.70;;
40997;SDS011;26740;45.944;12.480;2023-04-25T08:59:45;2.22;;;1.65;;
40997;SDS011;26740;45.944;12.480;2023-04-25T09:02:11;1.77;;;1.17;;
40997;SDS011;26740;45.944;12.480;2023-04-25T09:04:39;2.00;;;1.25;;
40997;SDS011;26740;45.944;12.480;2023-04-25T09:07:05;2.72;;;1.20;;
40997;SDS011;26740;45.944;12.480;2023-04-25T09:09:30;3.55;;;1.27;;
40997;SDS011;26740;45.944;12.480;2023-04-25T09:11:56;3.60;;;0.95;;
40997;SDS011;26740;45.944;12.480;2023-04-25T09:14:22;3.95;;;1.10;;
40997;SDS011;26740;45.944;12.480;2023-04-25T09:19:31;5.78;;;2.05;;
40997;SDS011;26740;45.944;12.480;2023-04-25T09:21:58;1.55;;;1.08;;
40997;SDS011;26740;45.944;12.480;2023-04-25T09:24:32;3.42;;;1.33;;
40997;SDS011;26740;45.944;12.480;2023-04-25T09:26:57;2.60;;;1.08;;
40997;SDS011;26740;45.944;12.480;2023-04-25T09:29:32;1.67;;;1.33;;
40997;SDS011;26740;45.944;12.480;2023-04-25T09:34:42;0.95;;;0.63;;
40997;SDS011;26740;45.944;12.480;2023-04-25T09:37:09;2.30;;;1.00;;
40997;SDS011;26740;45.944;12.480;2023-04-25T09:39:35;1.88;;;1.00;;
40997;SDS011;26740;45.944;12.480;2023-04-25T09:42:02;2.75;;;0.90;;
40997;SDS011;26740;45.944;12.480;2023-04-25T09:44:27;1.33;;;0.90;;
40997;SDS011;26740;45.944;12.480;2023-04-25T09:46:53;1.63;;;0.73;;
40997;SDS011;26740;45.944;12.480;2023-04-25T09:49:19;5.72;;;0.70;;
40997;SDS011;26740;45.944;12.480;2023-04-25T09:51:57;1.45;;;1.00;;
40997;SDS011;26740;45.944;12.480;2023-04-25T09:54:23;1.60;;;0.93;;
40997;SDS011;26740;45.944;12.480;2023-04-25T09:56:49;1.50;;;0.98;;
40997;SDS011;26740;45.944;12.480;2023-04-25T09:59:16;3.90;;;1.10;;
40997;SDS011;26740;45.944;12.480;2023-04-25T10:01:42;1.10;;;0.80;;
40997;SDS011;26740;45.944;12.480;2023-04-25T10:04:09;1.95;;;1.33;;
40997;SDS011;26740;45.944;12.480;2023-04-25T10:06:35;2.80;;;1.50;;
40997;SDS011;26740;45.944;12.480;2023-04-25T10:09:01;2.30;;;1.27;;
40997;SDS011;26740;45.944;12.480;2023-04-25T10:11:28;1.42;;;1.10;;
40997;SDS011;26740;45.944;12.480;2023-04-25T10:13:55;2.28;;;1.42;;
40997;SDS011;26740;45.944;12.480;2023-04-25T10:16:21;3.72;;;1.30;;
40997;SDS011;26740;45.944;12.480;2023-04-25T10:18:46;1.45;;;0.60;;
40997;SDS011;26740;45.944;12.480;2023-04-25T10:21:11;1.77;;;0.40;;
40997;SDS011;26740;45.944;12.480;2023-04-25T10:23:37;0.50;;;0.30;;
40997;SDS011;26740;45.944;12.480;2023-04-25T10:26:03;0.65;;;0.28;;
40997;SDS011;26740;45.944;12.480;2023-04-25T10:28:29;2.17;;;0.68;;
40997;SDS011;26740;45.944;12.480;2023-04-25T10:31:04;0.82;;;0.50;;
40997;SDS011;26740;45.944;12.480;2023-04-25T10:33:33;1.15;;;0.40;;
40997;SDS011;26740;45.944;12.480;2023-04-25T10:36:07;1.55;;;0.63;;
40997;SDS011;26740;45.944;12.480;2023-04-25T10:38:33;1.75;;;0.60;;
40997;SDS011;26740;45.944;12.480;2023-04-25T10:41:05;1.77;;;0.60;;
40997;SDS011;26740;45.944;12.480;2023-04-25T10:46:26;2.30;;;0.22;;
40997;SDS011;26740;45.944;12.480;2023-04-25T10:48:56;0.50;;;0.30;;
40997;SDS011;26740;45.944;12.480;2023-04-25T10:51:22;0.65;;;0.30;;
40997;SDS011;26740;45.944;12.480;2023-04-25T10:54:01;0.80;;;0.40;;
40997;SDS011;26740;45.944;12.480;2023-04-25T10:56:32;3.03;;;0.63;;
40997;SDS011;26740;45.944;12.480;2023-04-25T11:01:36;0.65;;;0.30;;
40997;SDS011;26740;45.944;12.480;2023-04-25T11:04:01;1.15;;;0.55;;
40997;SDS011;26740;45.944;12.480;2023-04-25T11:06:46;2.05;;;0.45;;
40997;SDS011;26740;45.944;12.480;2023-04-25T11:09:15;0.30;;;0.15;;
40997;SDS011;26740;45.944;12.480;2023-04-25T11:11:41;1.65;;;0.10;;
40997;SDS011;26740;45.944;12.480;2023-04-25T11:14:06;0.40;;;0.20;;
40997;SDS011;26740;45.944;12.480;2023-04-25T11:16:32;1.85;;;0.20;;
40997;SDS011;26740;45.944;12.480;2023-04-25T11:18:57;0.50;;;0.20;;
40997;SDS011;26740;45.944;12.480;2023-04-25T11:21:23;1.50;;;0.10;;
40997;SDS011;26740;45.944;12.480;2023-04-25T11:23:51;0.40;;;0.20;;
40997;SDS011;26740;45.944;12.480;2023-04-25T11:26:18;0.30;;;0.10;;
40997;SDS011;26740;45.944;12.480;2023-04-25T11:28:44;0.40;;;0.20;;
40997;SDS011;26740;45.944;12.480;2023-04-25T11:31:10;1.08;;;0.20;;
40997;SDS011;26740;45.944;12.480;2023-04-25T11:33:35;1.02;;;0.40;;
40997;SDS011;26740;45.944;12.480;2023-04-25T11:36:01;0.30;;;0.20;;
40997;SDS011;26740;45.944;12.480;2023-04-25T11:38:26;1.60;;;0.40;;
40997;SDS011;26740;45.944;12.480;2023-04-25T11:40:52;0.93;;;0.30;;
40997;SDS011;26740;45.944;12.480;2023-04-25T11:43:20;0.20;;;0.00;;
40997;SDS011;26740;45.944;12.480;2023-04-25T11:45:46;0.50;;;0.20;;
40997;SDS011;26740;45.944;12.480;2023-04-25T11:48:11;0.52;;;0.10;;
40997;SDS011;26740;45.944;12.480;2023-04-25T11:50:38;0.20;;;0.10;;
40997;SDS011;26740;45.944;12.480;2023-04-25T11:53:03;1.65;;;0.10;;
40997;SDS011;26740;45.944;12.480;2023-04-25T11:55:29;0.20;;;0.10;;
40997;SDS011;26740;45.944;12.480;2023-04-25T11:57:55;0.20;;;0.10;;
40997;SDS011;26740;45.944;12.480;2023-04-25T12:00:20;0.03;;;0.00;;
40997;SDS011;26740;45.944;12.480;2023-04-25T12:02:47;2.20;;;0.00;;
40997;SDS011;26740;45.944;12.480;2023-04-25T12:05:14;2.85;;;0.10;;
40997;SDS011;26740;45.944;12.480;2023-04-25T12:07:40;1.85;;;0.10;;
40997;SDS011;26740;45.944;12.480;2023-04-25T12:10:09;0.22;;;0.10;;
40997;SDS011;26740;45.944;12.480;2023-04-25T12:12:36;0.15;;;0.00;;
40997;SDS011;26740;45.944;12.480;2023-04-25T12:17:48;0.10;;;0.00;;
40997;SDS011;26740;45.944;12.480;2023-04-25T12:20:21;0.85;;;0.10;;
40997;SDS011;26740;45.944;12.480;2023-04-25T12:22:49;0.60;;;0.13;;
40997;SDS011;26740;45.944;12.480;2023-04-25T12:33:20;0.20;;;0.10;;
40997;SDS011;26740;45.944;12.480;2023-04-25T12:35:45;2.45;;;0.00;;
40997;SDS011;26740;45.944;12.480;2023-04-25T12:38:11;0.38;;;0.25;;
40997;SDS011;26740;45.944;12.480;2023-04-25T12:40:36;1.35;;;0.10;;
40997;SDS011;26740;45.944;12.480;2023-04-25T12:43:02;0.10;;;0.08;;
40997;SDS011;26740;45.944;12.480;2023-04-25T12:45:27;1.75;;;0.10;;
40997;SDS011;26740;45.944;12.480;2023-04-25T12:47:53;1.75;;;0.15;;
40997;SDS011;26740;45.944;12.480;2023-04-25T12:50:18;0.35;;;0.00;;
40997;SDS011;26740;45.944;12.480;2023-04-25T12:52:43;0.25;;;0.10;;
40997;SDS011;26740;45.944;12.480;2023-04-25T12:55:09;2.38;;;0.10;;
40997;SDS011;26740;45.944;12.480;2023-04-25T12:57:34;0.20;;;0.10;;
40997;SDS011;26740;45.944;12.480;2023-04-25T13:00:00;2.38;;;0.60;;
40997;SDS011;26740;45.944;12.480;2023-04-25T13:02:25;0.20;;;0.10;;
40997;SDS011;26740;45.944;12.480;2023-04-25T13:04:50;0.30;;;0.10;;
40997;SDS011;26740;45.944;12.480;2023-04-25T13:07:16;0.60;;;0.10;;
40997;SDS011;26740;45.944;12.480;2023-04-25T13:09:42;0.88;;;0.10;;
40997;SDS011;26740;45.944;12.480;2023-04-25T13:12:07;0.20;;;0.10;;
40997;SDS011;26740;45.944;12.480;2023-04-25T13:14:32;0.10;;;0.10;;
40997;SDS011;26740;45.944;12.480;2023-04-25T13:16:58;2.25;;;0.10;;
40997;SDS011;26740;45.944;12.480;2023-04-25T13:19:24;0.30;;;0.00;;
40997;SDS011;26740;45.944;12.480;2023-04-25T13:21:50;0.63;;;0.10;;
40997;SDS011;26740;45.944;12.480;2023-04-25T13:24:16;0.10;;;0.10;;
40997;SDS011;26740;45.944;12.480;2023-04-25T13:26:41;0.05;;;0.05;;
40997;SDS011;26740;45.944;12.480;2023-04-25T13:29:07;0.17;;;0.10;;
40997;SDS011;26740;45.944;12.480;2023-04-25T13:31:32;0.52;;;0.15;;
40997;SDS011;26740;45.944;12.480;2023-04-25T13:33:57;0.00;;;0.00;;
40997;SDS011;26740;45.944;12.480;2023-04-25T13:36:23;0.22;;;0.10;;
40997;SDS011;26740;45.944;12.480;2023-04-25T13:38:49;0.20;;;0.20;;
40997;SDS011;26740;45.944;12.480;2023-04-25T13:41:14;0.95;;;0.05;;
40997;SDS011;26740;45.944;12.480;2023-04-25T13:43:42;1.75;;;0.17;;
40997;SDS011;26740;45.944;12.480;2023-04-25T13:46:08;0.65;;;0.22;;
40997;SDS011;26740;45.944;12.480;2023-04-25T13:48:33;0.20;;;0.10;;
40997;SDS011;26740;45.944;12.480;2023-04-25T13:50:59;2.60;;;0.00;;
40997;SDS011;26740;45.944;12.480;2023-04-25T13:53:24;0.52;;;0.10;;
40997;SDS011;26740;45.944;12.480;2023-04-25T13:55:50;0.25;;;0.10;;
40997;SDS011;26740;45.944;12.480;2023-04-25T13:58:15;1.00;;;0.10;;
40997;SDS011;26740;45.944;12.480;2023-04-25T14:00:41;0.88;;;0.32;;
40997;SDS011;26740;45.944;12.480;2023-04-25T14:03:08;1.00;;;0.10;;
40997;SDS011;26740;45.944;12.480;2023-04-25T14:05:34;0.10;;;0.00;;
40997;SDS011;26740;45.944;12.480;2023-04-25T14:08:03;0.25;;;0.03;;
40997;SDS011;26740;45.944;12.480;2023-04-25T14:10:29;0.10;;;0.10;;
40997;SDS011;26740;45.944;12.480;2023-04-25T14:12:54;0.22;;;0.10;;
40997;SDS011;26740;45.944;12.480;2023-04-25T14:15:20;0.30;;;0.10;;
40997;SDS011;26740;45.944;12.480;2023-04-25T14:17:45;0.00;;;0.00;;
40997;SDS011;26740;45.944;12.480;2023-04-25T14:20:13;0.82;;;0.20;;
40997;SDS011;26740;45.944;12.480;2023-04-25T14:22:39;0.20;;;0.10;;
40997;SDS011;26740;45.944;12.480;2023-04-25T14:25:08;0.15;;;0.03;;
40997;SDS011;26740;45.944;12.480;2023-04-25T14:27:34;0.20;;;0.00;;
40997;SDS011;26740;45.944;12.480;2023-04-25T14:29:59;0.35;;;0.10;;
40997;SDS011;26740;45.944;12.480;2023-04-25T14:32:25;0.13;;;0.08;;
40997;SDS011;26740;45.944;12.480;2023-04-25T14:34:50;0.10;;;0.10;;
40997;SDS011;26740;45.944;12.480;2023-04-25T14:37:16;0.32;;;0.00;;
40997;SDS011;26740;45.944;12.480;2023-04-25T14:39:41;0.10;;;0.10;;
40997;SDS011;26740;45.944;12.480;2023-04-25T14:42:07;0.17;;;0.10;;
40997;SDS011;26740;45.944;12.480;2023-04-25T14:44:32;0.45;;;0.10;;
40997;SDS011;26740;45.944;12.480;2023-04-25T14:46:57;1.00;;;0.20;;